Pacific Beryl — 9V9809 — position and weather

sailwx.info

Track history (hours):
 
Tides and Currents Weather Stations Pressure Air Temp Water Temp Dewpoint Dewpoint Depression Visibility Wind Speed Wind Dir Waves Ship Positions

Pacific Beryl

Last reported at 2015-Aug-06 23:19 UTC. Time now 2015-Aug-30 03:38 UTC.
Position S 29°02' E 032°33'.
Warning: this ship's position is 23 days out of date.

Length 182 m; draft 7.5 m.

Type: Ship (hazmat cat C). MMSI: 566366000.

Date/timePositionNaut miles runAvg speedWind from/ knotsBaromVisibWave heightAir tempDewpointWater temp
2015-Aug-06 23:19S 29°02' E 032°33'39 9.6
2015-Aug-06 19:18S 29°31' E 032°04'911.5
2015-Aug-06 18:33S 29°35' E 031°55'1212.1
2015-Aug-06 17:33S 29°39' E 031°42'1212.0
2015-Aug-06 16:33S 29°44' E 031°30'1211.7
2015-Aug-06 15:33S 29°49' E 031°18'1212.0
2015-Aug-06 14:33S 29°51' E 031°04'2 1.9
2015-Aug-06 13:32S 29°53' E 031°03'0 0.0
2015-Aug-06 12:29S 29°53' E 031°03'0 0.0
2015-Aug-06 11:29S 29°53' E 031°03'0 0.0
2015-Aug-06 10:32S 29°53' E 031°03'0 0.0
2015-Aug-06 09:26S 29°53' E 031°03'0 0.0
2015-Aug-06 08:33S 29°53' E 031°03'0 0.0
2015-Aug-06 07:34S 29°53' E 031°03'0 0.0
2015-Aug-06 06:34S 29°53' E 031°03'3 2.6
2015-Aug-06 05:34S 29°51' E 031°05'5 4.8
2015-Aug-06 04:33S 29°48' E 031°09'7 7.2
2015-Aug-06 03:33S 29°46' E 031°17'2 2.3
2015-Aug-06 02:34S 29°49' E 031°16'3 2.6
2015-Aug-06 01:33S 29°51' E 031°15'2 2.4
2015-Aug-06 00:33S 29°53' E 031°14'5 5.0
2015-Aug-05 23:33S 29°49' E 031°11'7 6.9
2015-Aug-05 22:33S 29°45' E 031°17'1 0.9
2015-Aug-05 21:34S 29°45' E 031°18'3 2.8
2015-Aug-05 20:33S 29°48' E 031°17'3 3.0
2015-Aug-05 19:34S 29°51' E 031°17'2 1.7
2015-Aug-05 18:33S 29°49' E 031°17'2 2.1
2015-Aug-05 17:33S 29°47' E 031°17'3 3.1
2015-Aug-05 16:34S 29°50' E 031°18'2 1.9
2015-Aug-05 15:33S 29°51' E 031°16'2 1.8
2015-Aug-05 14:33S 29°53' E 031°15'1010.2
2015-Aug-05 13:33S 30°03' E 031°15'1313.1
2015-Aug-05 12:34S 30°16' E 031°15'1312.9
2015-Aug-05 11:33S 30°29' E 031°15'  
Track history (hours):
 
Tides and Currents Weather Stations Pressure Air Temp Water Temp Dewpoint Dewpoint Depression Visibility Wind Speed Wind Dir Waves Ship Positions

Pacific Beryl

Last reported at 2015-Aug-06 23:19 UTC. Time now 2015-Aug-30 03:38 UTC.
Position S 29°02' E 032°33'.
Warning: this ship's position is 23 days out of date.

Length 182 m; draft 7.5 m.

Type: Ship (hazmat cat C). MMSI: 566366000.

Date/timePositionNaut miles runAvg speedWind from/ knotsBaromVisibWave heightAir tempDewpointWater temp
2015-Aug-06 23:19S 29°02' E 032°33'39 9.6
2015-Aug-06 19:18S 29°31' E 032°04'911.5
2015-Aug-06 18:33S 29°35' E 031°55'1212.1
2015-Aug-06 17:33S 29°39' E 031°42'1212.0
2015-Aug-06 16:33S 29°44' E 031°30'1211.7
2015-Aug-06 15:33S 29°49' E 031°18'1212.0
2015-Aug-06 14:33S 29°51' E 031°04'2 1.9
2015-Aug-06 13:32S 29°53' E 031°03'0 0.0
2015-Aug-06 12:29S 29°53' E 031°03'0 0.0
2015-Aug-06 11:29S 29°53' E 031°03'0 0.0
2015-Aug-06 10:32S 29°53' E 031°03'0 0.0
2015-Aug-06 09:26S 29°53' E 031°03'0 0.0
2015-Aug-06 08:33S 29°53' E 031°03'0 0.0
2015-Aug-06 07:34S 29°53' E 031°03'0 0.0
2015-Aug-06 06:34S 29°53' E 031°03'3 2.6
2015-Aug-06 05:34S 29°51' E 031°05'5 4.8
2015-Aug-06 04:33S 29°48' E 031°09'7 7.2
2015-Aug-06 03:33S 29°46' E 031°17'2 2.3
2015-Aug-06 02:34S 29°49' E 031°16'3 2.6
2015-Aug-06 01:33S 29°51' E 031°15'2 2.4
2015-Aug-06 00:33S 29°53' E 031°14'5 5.0
2015-Aug-05 23:33S 29°49' E 031°11'7 6.9
2015-Aug-05 22:33S 29°45' E 031°17'1 0.9
2015-Aug-05 21:34S 29°45' E 031°18'3 2.8
2015-Aug-05 20:33S 29°48' E 031°17'3 3.0
2015-Aug-05 19:34S 29°51' E 031°17'2 1.7
2015-Aug-05 18:33S 29°49' E 031°17'2 2.1
2015-Aug-05 17:33S 29°47' E 031°17'3 3.1
2015-Aug-05 16:34S 29°50' E 031°18'2 1.9
2015-Aug-05 15:33S 29°51' E 031°16'2 1.8
2015-Aug-05 14:33S 29°53' E 031°15'1010.2
2015-Aug-05 13:33S 30°03' E 031°15'1313.1
2015-Aug-05 12:34S 30°16' E 031°15'1312.9
2015-Aug-05 11:33S 30°29' E 031°15'  

Dump ship's entire track history